sensor_id;sensor_type;location;lat;lon;timestamp;P1;durP1;ratioP1;P2;durP2;ratioP2
5900;SDS011;2976;49.764;9.796;2023-12-28T00:01:58;2.43;;;2.17;;
5900;SDS011;2976;49.764;9.796;2023-12-28T00:04:23;4.40;;;2.37;;
5900;SDS011;2976;49.764;9.796;2023-12-28T00:06:49;1.83;;;1.73;;
5900;SDS011;2976;49.764;9.796;2023-12-28T00:09:14;3.67;;;2.10;;
5900;SDS011;2976;49.764;9.796;2023-12-28T00:11:40;2.00;;;1.80;;
5900;SDS011;2976;49.764;9.796;2023-12-28T00:14:05;3.80;;;1.83;;
5900;SDS011;2976;49.764;9.796;2023-12-28T00:16:31;3.83;;;1.93;;
5900;SDS011;2976;49.764;9.796;2023-12-28T00:18:57;3.17;;;2.07;;
5900;SDS011;2976;49.764;9.796;2023-12-28T00:21:23;4.73;;;1.53;;
5900;SDS011;2976;49.764;9.796;2023-12-28T00:23:48;3.20;;;1.90;;
5900;SDS011;2976;49.764;9.796;2023-12-28T00:26:14;3.60;;;1.50;;
5900;SDS011;2976;49.764;9.796;2023-12-28T00:28:46;5.90;;;1.70;;
5900;SDS011;2976;49.764;9.796;2023-12-28T00:31:11;2.43;;;2.23;;
5900;SDS011;2976;49.764;9.796;2023-12-28T00:33:37;2.83;;;2.13;;
5900;SDS011;2976;49.764;9.796;2023-12-28T00:36:03;4.53;;;2.80;;
5900;SDS011;2976;49.764;9.796;2023-12-28T00:38:28;2.30;;;1.80;;
5900;SDS011;2976;49.764;9.796;2023-12-28T00:40:54;3.03;;;2.20;;
5900;SDS011;2976;49.764;9.796;2023-12-28T00:43:19;1.90;;;1.60;;
5900;SDS011;2976;49.764;9.796;2023-12-28T00:45:45;2.33;;;2.10;;
5900;SDS011;2976;49.764;9.796;2023-12-28T00:48:10;3.20;;;1.73;;
5900;SDS011;2976;49.764;9.796;2023-12-28T00:50:36;4.93;;;2.17;;
5900;SDS011;2976;49.764;9.796;2023-12-28T00:53:01;8.70;;;2.60;;
5900;SDS011;2976;49.764;9.796;2023-12-28T00:55:27;4.00;;;2.50;;
5900;SDS011;2976;49.764;9.796;2023-12-28T00:57:53;2.90;;;2.70;;
5900;SDS011;2976;49.764;9.796;2023-12-28T01:00:18;5.03;;;2.10;;
5900;SDS011;2976;49.764;9.796;2023-12-28T01:02:44;6.33;;;2.40;;
5900;SDS011;2976;49.764;9.796;2023-12-28T01:05:12;6.40;;;2.40;;
5900;SDS011;2976;49.764;9.796;2023-12-28T01:07:38;2.90;;;2.27;;
5900;SDS011;2976;49.764;9.796;2023-12-28T01:10:03;7.40;;;2.23;;
5900;SDS011;2976;49.764;9.796;2023-12-28T01:12:29;4.03;;;2.70;;
5900;SDS011;2976;49.764;9.796;2023-12-28T01:14:55;2.53;;;2.10;;
5900;SDS011;2976;49.764;9.796;2023-12-28T01:17:20;4.20;;;2.20;;
5900;SDS011;2976;49.764;9.796;2023-12-28T01:19:46;4.53;;;2.50;;
5900;SDS011;2976;49.764;9.796;2023-12-28T01:22:12;5.73;;;2.83;;
5900;SDS011;2976;49.764;9.796;2023-12-28T01:24:37;3.50;;;2.30;;
5900;SDS011;2976;49.764;9.796;2023-12-28T01:27:03;4.63;;;2.63;;
5900;SDS011;2976;49.764;9.796;2023-12-28T01:29:28;4.53;;;3.17;;
5900;SDS011;2976;49.764;9.796;2023-12-28T01:31:54;6.20;;;2.60;;
5900;SDS011;2976;49.764;9.796;2023-12-28T01:34:19;2.87;;;2.57;;
5900;SDS011;2976;49.764;9.796;2023-12-28T01:36:45;3.93;;;2.97;;
5900;SDS011;2976;49.764;9.796;2023-12-28T01:39:10;4.63;;;2.43;;
5900;SDS011;2976;49.764;9.796;2023-12-28T01:41:36;4.70;;;2.87;;
5900;SDS011;2976;49.764;9.796;2023-12-28T01:44:02;3.20;;;2.40;;
5900;SDS011;2976;49.764;9.796;2023-12-28T01:46:27;4.20;;;3.20;;
5900;SDS011;2976;49.764;9.796;2023-12-28T01:48:53;10.87;;;2.40;;
5900;SDS011;2976;49.764;9.796;2023-12-28T01:51:20;2.77;;;2.40;;
5900;SDS011;2976;49.764;9.796;2023-12-28T01:53:48;7.47;;;3.13;;
5900;SDS011;2976;49.764;9.796;2023-12-28T01:56:16;3.23;;;2.40;;
5900;SDS011;2976;49.764;9.796;2023-12-28T01:58:43;2.83;;;2.50;;
5900;SDS011;2976;49.764;9.796;2023-12-28T02:01:11;3.80;;;2.43;;
5900;SDS011;2976;49.764;9.796;2023-12-28T02:03:37;4.07;;;2.33;;
5900;SDS011;2976;49.764;9.796;2023-12-28T02:06:03;8.80;;;2.67;;
5900;SDS011;2976;49.764;9.796;2023-12-28T02:08:31;10.73;;;3.07;;
5900;SDS011;2976;49.764;9.796;2023-12-28T02:10:57;3.73;;;2.77;;
5900;SDS011;2976;49.764;9.796;2023-12-28T02:13:23;3.60;;;2.40;;
5900;SDS011;2976;49.764;9.796;2023-12-28T02:15:54;5.80;;;2.87;;
5900;SDS011;2976;49.764;9.796;2023-12-28T02:18:24;3.53;;;2.40;;
5900;SDS011;2976;49.764;9.796;2023-12-28T02:20:54;4.60;;;2.90;;
5900;SDS011;2976;49.764;9.796;2023-12-28T02:23:20;2.60;;;2.23;;
5900;SDS011;2976;49.764;9.796;2023-12-28T02:25:45;3.30;;;2.70;;
5900;SDS011;2976;49.764;9.796;2023-12-28T02:28:11;4.43;;;2.40;;
5900;SDS011;2976;49.764;9.796;2023-12-28T02:30:36;3.10;;;2.80;;
5900;SDS011;2976;49.764;9.796;2023-12-28T02:35:55;3.03;;;2.07;;
5900;SDS011;2976;49.764;9.796;2023-12-28T02:38:24;5.07;;;2.50;;
5900;SDS011;2976;49.764;9.796;2023-12-28T02:40:51;2.67;;;1.97;;
5900;SDS011;2976;49.764;9.796;2023-12-28T02:43:17;2.70;;;1.90;;
5900;SDS011;2976;49.764;9.796;2023-12-28T02:45:43;2.50;;;2.00;;
5900;SDS011;2976;49.764;9.796;2023-12-28T02:48:09;2.77;;;1.97;;
5900;SDS011;2976;49.764;9.796;2023-12-28T02:50:34;3.83;;;2.43;;
5900;SDS011;2976;49.764;9.796;2023-12-28T02:53:00;3.07;;;2.30;;
5900;SDS011;2976;49.764;9.796;2023-12-28T02:55:26;2.70;;;1.87;;
5900;SDS011;2976;49.764;9.796;2023-12-28T02:57:55;2.90;;;2.57;;
5900;SDS011;2976;49.764;9.796;2023-12-28T03:00:24;1.90;;;1.80;;
5900;SDS011;2976;49.764;9.796;2023-12-28T03:02:49;2.33;;;1.90;;
5900;SDS011;2976;49.764;9.796;2023-12-28T03:05:15;2.10;;;1.67;;
5900;SDS011;2976;49.764;9.796;2023-12-28T03:07:41;2.13;;;1.77;;
5900;SDS011;2976;49.764;9.796;2023-12-28T03:10:07;2.70;;;1.90;;
5900;SDS011;2976;49.764;9.796;2023-12-28T03:12:33;3.97;;;2.47;;
5900;SDS011;2976;49.764;9.796;2023-12-28T03:14:59;3.03;;;2.00;;
5900;SDS011;2976;49.764;9.796;2023-12-28T03:17:25;2.83;;;1.90;;
5900;SDS011;2976;49.764;9.796;2023-12-28T03:19:50;2.63;;;1.83;;
5900;SDS011;2976;49.764;9.796;2023-12-28T03:22:16;2.40;;;1.57;;
5900;SDS011;2976;49.764;9.796;2023-12-28T03:24:42;1.70;;;1.60;;
5900;SDS011;2976;49.764;9.796;2023-12-28T03:27:08;4.47;;;2.20;;
5900;SDS011;2976;49.764;9.796;2023-12-28T03:29:34;2.40;;;2.13;;
5900;SDS011;2976;49.764;9.796;2023-12-28T03:31:59;1.93;;;1.83;;
5900;SDS011;2976;49.764;9.796;2023-12-28T03:34:25;2.03;;;1.60;;
5900;SDS011;2976;49.764;9.796;2023-12-28T03:36:51;1.73;;;1.63;;
5900;SDS011;2976;49.764;9.796;2023-12-28T03:39:17;3.50;;;2.03;;
5900;SDS011;2976;49.764;9.796;2023-12-28T03:41:43;4.03;;;1.50;;
5900;SDS011;2976;49.764;9.796;2023-12-28T03:44:08;3.47;;;2.00;;
5900;SDS011;2976;49.764;9.796;2023-12-28T03:46:34;2.30;;;1.77;;
5900;SDS011;2976;49.764;9.796;2023-12-28T03:49:00;2.00;;;1.80;;
5900;SDS011;2976;49.764;9.796;2023-12-28T03:51:25;3.17;;;1.70;;
5900;SDS011;2976;49.764;9.796;2023-12-28T03:53:51;3.77;;;2.10;;
5900;SDS011;2976;49.764;9.796;2023-12-28T03:56:23;3.30;;;1.80;;
5900;SDS011;2976;49.764;9.796;2023-12-28T03:58:50;2.93;;;1.40;;
5900;SDS011;2976;49.764;9.796;2023-12-28T04:01:21;3.70;;;1.87;;
5900;SDS011;2976;49.764;9.796;2023-12-28T04:03:47;2.93;;;1.53;;
5900;SDS011;2976;49.764;9.796;2023-12-28T04:06:13;2.73;;;1.50;;
5900;SDS011;2976;49.764;9.796;2023-12-28T04:08:42;2.27;;;2.17;;
5900;SDS011;2976;49.764;9.796;2023-12-28T04:11:09;4.77;;;1.53;;
5900;SDS011;2976;49.764;9.796;2023-12-28T04:13:35;1.93;;;1.80;;
5900;SDS011;2976;49.764;9.796;2023-12-28T04:16:00;3.50;;;1.60;;
5900;SDS011;2976;49.764;9.796;2023-12-28T04:18:26;3.20;;;1.90;;
5900;SDS011;2976;49.764;9.796;2023-12-28T04:20:52;2.70;;;1.50;;
5900;SDS011;2976;49.764;9.796;2023-12-28T04:23:17;2.90;;;1.60;;
5900;SDS011;2976;49.764;9.796;2023-12-28T04:25:43;3.50;;;1.73;;
5900;SDS011;2976;49.764;9.796;2023-12-28T04:28:09;1.50;;;1.40;;
5900;SDS011;2976;49.764;9.796;2023-12-28T04:30:34;2.60;;;1.50;;
5900;SDS011;2976;49.764;9.796;2023-12-28T04:33:00;2.30;;;1.90;;
5900;SDS011;2976;49.764;9.796;2023-12-28T04:35:26;1.93;;;1.70;;
5900;SDS011;2976;49.764;9.796;2023-12-28T04:37:51;3.93;;;1.63;;
5900;SDS011;2976;49.764;9.796;2023-12-28T04:40:17;4.30;;;1.70;;
5900;SDS011;2976;49.764;9.796;2023-12-28T04:42:43;4.50;;;1.77;;
5900;SDS011;2976;49.764;9.796;2023-12-28T04:45:09;1.70;;;1.53;;
5900;SDS011;2976;49.764;9.796;2023-12-28T04:47:37;3.90;;;1.60;;
5900;SDS011;2976;49.764;9.796;2023-12-28T04:50:03;2.70;;;1.50;;
5900;SDS011;2976;49.764;9.796;2023-12-28T04:52:30;0.93;;;0.90;;
5900;SDS011;2976;49.764;9.796;2023-12-28T04:54:56;1.37;;;1.20;;
5900;SDS011;2976;49.764;9.796;2023-12-28T04:57:21;1.50;;;1.40;;
5900;SDS011;2976;49.764;9.796;2023-12-28T04:59:49;1.47;;;1.33;;
5900;SDS011;2976;49.764;9.796;2023-12-28T05:02:15;1.23;;;0.90;;
5900;SDS011;2976;49.764;9.796;2023-12-28T05:04:41;1.20;;;1.20;;
5900;SDS011;2976;49.764;9.796;2023-12-28T05:07:06;1.80;;;1.50;;
5900;SDS011;2976;49.764;9.796;2023-12-28T05:09:32;1.37;;;1.27;;
5900;SDS011;2976;49.764;9.796;2023-12-28T05:11:57;1.67;;;1.20;;
5900;SDS011;2976;49.764;9.796;2023-12-28T05:14:23;6.13;;;1.07;;
5900;SDS011;2976;49.764;9.796;2023-12-28T05:16:49;1.23;;;1.23;;
5900;SDS011;2976;49.764;9.796;2023-12-28T05:19:14;1.40;;;1.10;;
5900;SDS011;2976;49.764;9.796;2023-12-28T05:21:40;1.60;;;1.13;;
5900;SDS011;2976;49.764;9.796;2023-12-28T05:24:06;2.43;;;1.17;;
5900;SDS011;2976;49.764;9.796;2023-12-28T05:26:31;2.20;;;1.57;;
5900;SDS011;2976;49.764;9.796;2023-12-28T05:28:57;1.30;;;1.20;;
5900;SDS011;2976;49.764;9.796;2023-12-28T05:31:23;1.00;;;1.00;;
5900;SDS011;2976;49.764;9.796;2023-12-28T05:33:48;1.40;;;1.13;;
5900;SDS011;2976;49.764;9.796;2023-12-28T05:36:14;2.47;;;1.40;;
5900;SDS011;2976;49.764;9.796;2023-12-28T05:38:39;1.13;;;1.13;;
5900;SDS011;2976;49.764;9.796;2023-12-28T05:41:05;1.30;;;1.20;;
5900;SDS011;2976;49.764;9.796;2023-12-28T05:43:30;1.10;;;1.07;;
5900;SDS011;2976;49.764;9.796;2023-12-28T05:45:56;0.80;;;0.80;;
5900;SDS011;2976;49.764;9.796;2023-12-28T05:48:21;1.73;;;1.37;;
5900;SDS011;2976;49.764;9.796;2023-12-28T05:50:47;0.90;;;0.90;;
5900;SDS011;2976;49.764;9.796;2023-12-28T05:53:12;1.37;;;1.20;;
5900;SDS011;2976;49.764;9.796;2023-12-28T05:55:42;5.27;;;1.23;;
5900;SDS011;2976;49.764;9.796;2023-12-28T05:58:08;1.33;;;1.20;;
5900;SDS011;2976;49.764;9.796;2023-12-28T06:00:37;1.63;;;1.40;;
5900;SDS011;2976;49.764;9.796;2023-12-28T06:03:03;1.10;;;0.93;;
5900;SDS011;2976;49.764;9.796;2023-12-28T06:05:29;1.67;;;1.23;;
5900;SDS011;2976;49.764;9.796;2023-12-28T06:07:55;1.00;;;0.90;;
5900;SDS011;2976;49.764;9.796;2023-12-28T06:10:21;1.33;;;1.10;;
5900;SDS011;2976;49.764;9.796;2023-12-28T06:12:46;3.80;;;0.90;;
5900;SDS011;2976;49.764;9.796;2023-12-28T06:15:12;2.77;;;1.27;;
5900;SDS011;2976;49.764;9.796;2023-12-28T06:17:37;1.60;;;1.40;;
5900;SDS011;2976;49.764;9.796;2023-12-28T06:20:03;0.80;;;0.80;;
5900;SDS011;2976;49.764;9.796;2023-12-28T06:22:29;1.23;;;1.13;;
5900;SDS011;2976;49.764;9.796;2023-12-28T06:24:55;1.30;;;1.00;;
5900;SDS011;2976;49.764;9.796;2023-12-28T06:27:21;1.20;;;0.90;;
5900;SDS011;2976;49.764;9.796;2023-12-28T06:29:48;5.03;;;1.10;;
5900;SDS011;2976;49.764;9.796;2023-12-28T06:32:14;3.27;;;1.40;;
5900;SDS011;2976;49.764;9.796;2023-12-28T06:34:40;1.03;;;1.03;;
5900;SDS011;2976;49.764;9.796;2023-12-28T06:37:05;7.43;;;0.90;;
5900;SDS011;2976;49.764;9.796;2023-12-28T06:39:31;2.93;;;0.80;;
5900;SDS011;2976;49.764;9.796;2023-12-28T06:41:57;1.87;;;1.50;;
5900;SDS011;2976;49.764;9.796;2023-12-28T06:44:22;2.73;;;1.10;;
5900;SDS011;2976;49.764;9.796;2023-12-28T06:46:48;1.00;;;1.00;;
5900;SDS011;2976;49.764;9.796;2023-12-28T06:49:13;1.00;;;1.00;;
5900;SDS011;2976;49.764;9.796;2023-12-28T06:51:39;1.40;;;1.03;;
5900;SDS011;2976;49.764;9.796;2023-12-28T06:54:05;4.77;;;0.97;;
5900;SDS011;2976;49.764;9.796;2023-12-28T06:56:30;1.70;;;1.13;;
5900;SDS011;2976;49.764;9.796;2023-12-28T06:58:56;0.97;;;0.97;;
5900;SDS011;2976;49.764;9.796;2023-12-28T07:01:21;2.80;;;1.37;;
5900;SDS011;2976;49.764;9.796;2023-12-28T07:03:47;3.47;;;1.40;;
5900;SDS011;2976;49.764;9.796;2023-12-28T07:06:16;3.10;;;1.23;;
5900;SDS011;2976;49.764;9.796;2023-12-28T07:08:41;2.07;;;1.00;;
5900;SDS011;2976;49.764;9.796;2023-12-28T07:11:09;1.60;;;1.10;;
5900;SDS011;2976;49.764;9.796;2023-12-28T07:13:36;2.87;;;1.07;;
5900;SDS011;2976;49.764;9.796;2023-12-28T07:16:01;2.63;;;1.30;;
5900;SDS011;2976;49.764;9.796;2023-12-28T07:18:27;0.90;;;0.90;;
5900;SDS011;2976;49.764;9.796;2023-12-28T07:20:53;1.20;;;1.13;;
5900;SDS011;2976;49.764;9.796;2023-12-28T07:23:19;1.40;;;1.30;;
5900;SDS011;2976;49.764;9.796;2023-12-28T07:25:44;1.27;;;1.20;;
5900;SDS011;2976;49.764;9.796;2023-12-28T07:28:10;2.70;;;0.90;;
5900;SDS011;2976;49.764;9.796;2023-12-28T07:30:36;1.47;;;1.27;;
5900;SDS011;2976;49.764;9.796;2023-12-28T07:33:02;5.60;;;1.67;;
5900;SDS011;2976;49.764;9.796;2023-12-28T07:35:27;5.30;;;1.10;;
5900;SDS011;2976;49.764;9.796;2023-12-28T07:37:53;1.10;;;1.10;;
5900;SDS011;2976;49.764;9.796;2023-12-28T07:40:19;1.30;;;1.17;;
5900;SDS011;2976;49.764;9.796;2023-12-28T07:42:45;2.80;;;1.30;;
5900;SDS011;2976;49.764;9.796;2023-12-28T07:45:10;0.80;;;0.80;;
5900;SDS011;2976;49.764;9.796;2023-12-28T07:47:36;2.50;;;1.30;;
5900;SDS011;2976;49.764;9.796;2023-12-28T07:50:02;0.93;;;0.93;;
5900;SDS011;2976;49.764;9.796;2023-12-28T07:52:27;1.93;;;1.27;;
5900;SDS011;2976;49.764;9.796;2023-12-28T07:54:53;1.60;;;1.50;;
5900;SDS011;2976;49.764;9.796;2023-12-28T07:57:19;1.90;;;1.00;;
5900;SDS011;2976;49.764;9.796;2023-12-28T07:59:45;1.17;;;1.17;;
5900;SDS011;2976;49.764;9.796;2023-12-28T08:02:11;3.00;;;1.50;;
5900;SDS011;2976;49.764;9.796;2023-12-28T08:04:37;2.30;;;1.17;;
5900;SDS011;2976;49.764;9.796;2023-12-28T08:07:02;2.20;;;1.30;;
5900;SDS011;2976;49.764;9.796;2023-12-28T08:09:29;1.40;;;1.30;;
5900;SDS011;2976;49.764;9.796;2023-12-28T08:11:54;1.63;;;1.53;;
5900;SDS011;2976;49.764;9.796;2023-12-28T08:14:20;1.10;;;1.00;;
5900;SDS011;2976;49.764;9.796;2023-12-28T08:16:46;1.10;;;1.10;;
5900;SDS011;2976;49.764;9.796;2023-12-28T08:19:11;1.10;;;1.10;;
5900;SDS011;2976;49.764;9.796;2023-12-28T08:21:37;1.57;;;1.40;;
5900;SDS011;2976;49.764;9.796;2023-12-28T08:24:03;1.23;;;1.10;;
5900;SDS011;2976;49.764;9.796;2023-12-28T08:26:28;1.20;;;1.10;;
5900;SDS011;2976;49.764;9.796;2023-12-28T08:28:54;1.60;;;1.33;;
5900;SDS011;2976;49.764;9.796;2023-12-28T08:31:20;1.00;;;1.00;;
5900;SDS011;2976;49.764;9.796;2023-12-28T08:33:46;1.47;;;1.37;;
5900;SDS011;2976;49.764;9.796;2023-12-28T08:36:11;1.50;;;1.13;;
5900;SDS011;2976;49.764;9.796;2023-12-28T08:38:37;2.70;;;1.57;;
5900;SDS011;2976;49.764;9.796;2023-12-28T08:41:03;5.17;;;1.37;;
5900;SDS011;2976;49.764;9.796;2023-12-28T08:43:33;1.47;;;1.37;;
5900;SDS011;2976;49.764;9.796;2023-12-28T08:46:00;0.93;;;0.93;;
5900;SDS011;2976;49.764;9.796;2023-12-28T08:48:25;0.97;;;0.93;;
5900;SDS011;2976;49.764;9.796;2023-12-28T08:50:51;0.90;;;0.90;;
5900;SDS011;2976;49.764;9.796;2023-12-28T08:53:16;1.87;;;1.20;;
5900;SDS011;2976;49.764;9.796;2023-12-28T08:55:42;2.80;;;1.10;;
5900;SDS011;2976;49.764;9.796;2023-12-28T08:58:07;1.40;;;1.30;;
5900;SDS011;2976;49.764;9.796;2023-12-28T09:00:33;1.63;;;1.53;;
5900;SDS011;2976;49.764;9.796;2023-12-28T09:02:59;1.10;;;1.10;;
5900;SDS011;2976;49.764;9.796;2023-12-28T09:05:24;5.07;;;1.40;;
5900;SDS011;2976;49.764;9.796;2023-12-28T09:07:50;4.20;;;1.07;;
5900;SDS011;2976;49.764;9.796;2023-12-28T09:10:15;1.93;;;1.60;;
5900;SDS011;2976;49.764;9.796;2023-12-28T09:12:41;1.53;;;1.30;;
5900;SDS011;2976;49.764;9.796;2023-12-28T09:15:07;2.60;;;1.40;;
5900;SDS011;2976;49.764;9.796;2023-12-28T09:17:33;1.47;;;1.37;;
5900;SDS011;2976;49.764;9.796;2023-12-28T09:19:59;1.57;;;1.47;;
5900;SDS011;2976;49.764;9.796;2023-12-28T09:22:26;2.77;;;1.53;;
5900;SDS011;2976;49.764;9.796;2023-12-28T09:24:52;1.00;;;1.00;;
5900;SDS011;2976;49.764;9.796;2023-12-28T09:27:18;1.53;;;1.43;;
5900;SDS011;2976;49.764;9.796;2023-12-28T09:29:44;1.93;;;1.17;;
5900;SDS011;2976;49.764;9.796;2023-12-28T09:32:09;1.90;;;1.50;;
5900;SDS011;2976;49.764;9.796;2023-12-28T09:34:35;1.60;;;1.50;;
5900;SDS011;2976;49.764;9.796;2023-12-28T09:37:00;1.77;;;1.20;;
5900;SDS011;2976;49.764;9.796;2023-12-28T09:39:26;2.23;;;1.60;;
5900;SDS011;2976;49.764;9.796;2023-12-28T09:41:59;1.20;;;1.10;;
5900;SDS011;2976;49.764;9.796;2023-12-28T09:44:29;5.30;;;2.23;;
5900;SDS011;2976;49.764;9.796;2023-12-28T09:46:56;1.90;;;1.80;;
5900;SDS011;2976;49.764;9.796;2023-12-28T09:49:22;2.63;;;1.90;;
5900;SDS011;2976;49.764;9.796;2023-12-28T09:51:48;1.30;;;1.20;;
5900;SDS011;2976;49.764;9.796;2023-12-28T09:54:14;1.40;;;1.30;;
5900;SDS011;2976;49.764;9.796;2023-12-28T09:56:40;2.70;;;1.37;;
5900;SDS011;2976;49.764;9.796;2023-12-28T09:59:06;2.70;;;1.40;;
5900;SDS011;2976;49.764;9.796;2023-12-28T10:01:32;2.00;;;1.30;;
5900;SDS011;2976;49.764;9.796;2023-12-28T10:03:59;1.70;;;1.40;;
5900;SDS011;2976;49.764;9.796;2023-12-28T10:06:25;1.80;;;1.60;;
5900;SDS011;2976;49.764;9.796;2023-12-28T10:08:51;1.00;;;1.00;;
5900;SDS011;2976;49.764;9.796;2023-12-28T10:11:17;1.67;;;1.57;;
5900;SDS011;2976;49.764;9.796;2023-12-28T10:13:43;1.43;;;1.33;;
5900;SDS011;2976;49.764;9.796;2023-12-28T10:16:10;1.83;;;1.40;;
5900;SDS011;2976;49.764;9.796;2023-12-28T10:18:39;1.70;;;1.60;;
5900;SDS011;2976;49.764;9.796;2023-12-28T10:21:08;2.37;;;1.60;;
5900;SDS011;2976;49.764;9.796;2023-12-28T10:23:34;1.60;;;1.23;;
5900;SDS011;2976;49.764;9.796;2023-12-28T10:26:00;2.00;;;1.20;;
5900;SDS011;2976;49.764;9.796;2023-12-28T10:28:26;1.87;;;1.77;;
5900;SDS011;2976;49.764;9.796;2023-12-28T10:30:55;3.13;;;1.87;;
5900;SDS011;2976;49.764;9.796;2023-12-28T10:33:21;2.03;;;1.67;;
5900;SDS011;2976;49.764;9.796;2023-12-28T10:35:47;2.10;;;1.63;;
5900;SDS011;2976;49.764;9.796;2023-12-28T10:38:16;2.00;;;1.47;;
5900;SDS011;2976;49.764;9.796;2023-12-28T10:40:42;1.57;;;1.47;;
5900;SDS011;2976;49.764;9.796;2023-12-28T10:43:16;1.77;;;1.67;;
5900;SDS011;2976;49.764;9.796;2023-12-28T10:45:47;2.43;;;1.50;;
5900;SDS011;2976;49.764;9.796;2023-12-28T10:48:16;2.20;;;1.60;;
5900;SDS011;2976;49.764;9.796;2023-12-28T10:50:50;3.30;;;1.77;;
5900;SDS011;2976;49.764;9.796;2023-12-28T10:55:48;2.67;;;2.27;;
5900;SDS011;2976;49.764;9.796;2023-12-28T11:01:17;1.97;;;1.83;;
5900;SDS011;2976;49.764;9.796;2023-12-28T11:03:48;2.90;;;2.00;;
5900;SDS011;2976;49.764;9.796;2023-12-28T11:06:20;3.13;;;1.83;;
5900;SDS011;2976;49.764;9.796;2023-12-28T11:08:46;2.10;;;1.90;;
5900;SDS011;2976;49.764;9.796;2023-12-28T11:11:16;2.43;;;1.60;;
5900;SDS011;2976;49.764;9.796;2023-12-28T11:13:43;2.57;;;2.17;;
5900;SDS011;2976;49.764;9.796;2023-12-28T11:16:10;3.13;;;2.40;;
5900;SDS011;2976;49.764;9.796;2023-12-28T11:18:36;4.80;;;1.90;;
5900;SDS011;2976;49.764;9.796;2023-12-28T11:21:02;3.33;;;1.87;;
5900;SDS011;2976;49.764;9.796;2023-12-28T11:23:28;2.77;;;2.43;;
5900;SDS011;2976;49.764;9.796;2023-12-28T11:25:54;1.83;;;1.73;;
5900;SDS011;2976;49.764;9.796;2023-12-28T11:28:20;2.30;;;2.10;;
5900;SDS011;2976;49.764;9.796;2023-12-28T11:30:48;2.93;;;1.90;;
5900;SDS011;2976;49.764;9.796;2023-12-28T11:33:14;4.33;;;2.30;;
5900;SDS011;2976;49.764;9.796;2023-12-28T11:35:40;1.80;;;1.33;;
5900;SDS011;2976;49.764;9.796;2023-12-28T11:38:09;2.57;;;1.73;;
5900;SDS011;2976;49.764;9.796;2023-12-28T11:40:45;2.10;;;1.77;;
5900;SDS011;2976;49.764;9.796;2023-12-28T11:43:18;4.87;;;2.20;;
5900;SDS011;2976;49.764;9.796;2023-12-28T11:45:54;2.53;;;2.20;;
5900;SDS011;2976;49.764;9.796;2023-12-28T11:48:27;2.57;;;1.60;;
5900;SDS011;2976;49.764;9.796;2023-12-28T11:50:56;1.80;;;1.50;;
5900;SDS011;2976;49.764;9.796;2023-12-28T11:53:24;2.23;;;1.50;;
5900;SDS011;2976;49.764;9.796;2023-12-28T11:55:50;1.40;;;1.30;;
5900;SDS011;2976;49.764;9.796;2023-12-28T11:58:16;1.40;;;1.30;;
5900;SDS011;2976;49.764;9.796;2023-12-28T12:00:43;1.67;;;1.57;;
5900;SDS011;2976;49.764;9.796;2023-12-28T12:03:12;1.53;;;1.17;;
5900;SDS011;2976;49.764;9.796;2023-12-28T12:05:38;2.27;;;0.90;;
5900;SDS011;2976;49.764;9.796;2023-12-28T12:08:10;1.13;;;0.93;;
5900;SDS011;2976;49.764;9.796;2023-12-28T12:10:39;1.10;;;1.10;;
5900;SDS011;2976;49.764;9.796;2023-12-28T12:13:05;0.73;;;0.73;;
5900;SDS011;2976;49.764;9.796;2023-12-28T12:15:31;3.30;;;1.20;;
5900;SDS011;2976;49.764;9.796;2023-12-28T12:17:57;1.30;;;0.93;;
5900;SDS011;2976;49.764;9.796;2023-12-28T12:20:23;2.00;;;1.53;;
5900;SDS011;2976;49.764;9.796;2023-12-28T12:22:48;1.70;;;1.50;;
5900;SDS011;2976;49.764;9.796;2023-12-28T12:25:14;1.80;;;1.17;;
5900;SDS011;2976;49.764;9.796;2023-12-28T12:27:43;1.00;;;0.87;;
5900;SDS011;2976;49.764;9.796;2023-12-28T12:30:09;1.47;;;1.37;;
5900;SDS011;2976;49.764;9.796;2023-12-28T12:32:35;1.50;;;1.40;;
5900;SDS011;2976;49.764;9.796;2023-12-28T12:35:04;1.50;;;1.20;;
5900;SDS011;2976;49.764;9.796;2023-12-28T12:37:31;1.77;;;1.40;;
5900;SDS011;2976;49.764;9.796;2023-12-28T12:39:56;1.60;;;1.50;;
5900;SDS011;2976;49.764;9.796;2023-12-28T12:42:22;1.10;;;1.00;;
5900;SDS011;2976;49.764;9.796;2023-12-28T12:44:47;1.73;;;1.00;;
5900;SDS011;2976;49.764;9.796;2023-12-28T12:47:13;1.70;;;1.60;;
5900;SDS011;2976;49.764;9.796;2023-12-28T12:49:39;2.03;;;1.60;;
5900;SDS011;2976;49.764;9.796;2023-12-28T12:52:07;1.37;;;1.27;;
5900;SDS011;2976;49.764;9.796;2023-12-28T12:54:32;2.77;;;1.87;;
5900;SDS011;2976;49.764;9.796;2023-12-28T12:56:58;1.30;;;1.30;;
5900;SDS011;2976;49.764;9.796;2023-12-28T12:59:24;3.40;;;1.63;;
5900;SDS011;2976;49.764;9.796;2023-12-28T13:01:51;1.33;;;1.23;;
5900;SDS011;2976;49.764;9.796;2023-12-28T13:04:18;2.03;;;1.37;;
5900;SDS011;2976;49.764;9.796;2023-12-28T13:06:44;1.80;;;1.70;;
5900;SDS011;2976;49.764;9.796;2023-12-28T13:11:45;2.60;;;1.83;;
5900;SDS011;2976;49.764;9.796;2023-12-28T13:14:14;2.63;;;1.83;;
5900;SDS011;2976;49.764;9.796;2023-12-28T13:16:39;2.83;;;1.60;;
5900;SDS011;2976;49.764;9.796;2023-12-28T13:19:05;2.10;;;1.27;;
5900;SDS011;2976;49.764;9.796;2023-12-28T13:21:30;1.53;;;1.50;;
5900;SDS011;2976;49.764;9.796;2023-12-28T13:23:56;1.83;;;1.73;;
5900;SDS011;2976;49.764;9.796;2023-12-28T13:26:24;1.60;;;1.50;;
5900;SDS011;2976;49.764;9.796;2023-12-28T13:28:50;4.90;;;1.83;;
5900;SDS011;2976;49.764;9.796;2023-12-28T13:31:15;2.40;;;1.80;;
5900;SDS011;2976;49.764;9.796;2023-12-28T13:33:43;2.37;;;1.37;;
5900;SDS011;2976;49.764;9.796;2023-12-28T13:36:08;1.60;;;1.50;;
5900;SDS011;2976;49.764;9.796;2023-12-28T13:38:34;1.97;;;1.70;;
5900;SDS011;2976;49.764;9.796;2023-12-28T13:40:59;2.30;;;1.70;;
5900;SDS011;2976;49.764;9.796;2023-12-28T13:43:25;1.43;;;1.43;;
5900;SDS011;2976;49.764;9.796;2023-12-28T13:45:51;4.00;;;1.93;;
5900;SDS011;2976;49.764;9.796;2023-12-28T13:48:16;1.53;;;1.43;;
5900;SDS011;2976;49.764;9.796;2023-12-28T13:50:42;1.63;;;1.53;;
5900;SDS011;2976;49.764;9.796;2023-12-28T13:53:08;2.80;;;1.50;;
5900;SDS011;2976;49.764;9.796;2023-12-28T13:55:34;6.47;;;1.67;;
5900;SDS011;2976;49.764;9.796;2023-12-28T13:58:00;1.50;;;1.23;;
5900;SDS011;2976;49.764;9.796;2023-12-28T14:00:26;1.60;;;1.50;;
5900;SDS011;2976;49.764;9.796;2023-12-28T14:02:51;2.13;;;1.40;;
5900;SDS011;2976;49.764;9.796;2023-12-28T14:05:18;0.90;;;0.90;;
5900;SDS011;2976;49.764;9.796;2023-12-28T14:07:44;1.60;;;1.60;;
5900;SDS011;2976;49.764;9.796;2023-12-28T14:10:09;4.30;;;1.57;;
5900;SDS011;2976;49.764;9.796;2023-12-28T14:12:35;1.50;;;1.37;;
5900;SDS011;2976;49.764;9.796;2023-12-28T14:15:00;1.47;;;1.40;;
5900;SDS011;2976;49.764;9.796;2023-12-28T14:17:26;1.90;;;1.40;;
5900;SDS011;2976;49.764;9.796;2023-12-28T14:19:51;1.23;;;1.13;;
5900;SDS011;2976;49.764;9.796;2023-12-28T14:22:17;1.30;;;1.20;;
5900;SDS011;2976;49.764;9.796;2023-12-28T14:24:43;2.77;;;1.40;;
5900;SDS011;2976;49.764;9.796;2023-12-28T14:27:09;0.87;;;0.87;;
5900;SDS011;2976;49.764;9.796;2023-12-28T14:29:36;1.47;;;1.00;;
5900;SDS011;2976;49.764;9.796;2023-12-28T14:32:02;0.93;;;0.93;;
5900;SDS011;2976;49.764;9.796;2023-12-28T14:34:28;0.80;;;0.60;;
5900;SDS011;2976;49.764;9.796;2023-12-28T14:36:56;0.50;;;0.50;;
5900;SDS011;2976;49.764;9.796;2023-12-28T14:39:22;0.90;;;0.50;;
5900;SDS011;2976;49.764;9.796;2023-12-28T14:41:48;0.60;;;0.60;;
5900;SDS011;2976;49.764;9.796;2023-12-28T14:44:13;0.60;;;0.60;;
5900;SDS011;2976;49.764;9.796;2023-12-28T14:46:39;0.50;;;0.50;;
5900;SDS011;2976;49.764;9.796;2023-12-28T14:49:04;0.60;;;0.60;;
5900;SDS011;2976;49.764;9.796;2023-12-28T14:51:30;0.63;;;0.63;;
5900;SDS011;2976;49.764;9.796;2023-12-28T14:53:56;0.70;;;0.40;;
5900;SDS011;2976;49.764;9.796;2023-12-28T14:56:21;0.60;;;0.50;;
5900;SDS011;2976;49.764;9.796;2023-12-28T14:58:47;0.77;;;0.77;;
5900;SDS011;2976;49.764;9.796;2023-12-28T15:01:15;0.70;;;0.70;;
5900;SDS011;2976;49.764;9.796;2023-12-28T15:03:47;0.60;;;0.60;;
5900;SDS011;2976;49.764;9.796;2023-12-28T15:06:13;0.60;;;0.60;;
5900;SDS011;2976;49.764;9.796;2023-12-28T15:08:39;1.33;;;0.60;;
5900;SDS011;2976;49.764;9.796;2023-12-28T15:11:04;0.50;;;0.50;;
5900;SDS011;2976;49.764;9.796;2023-12-28T15:13:35;0.83;;;0.40;;
5900;SDS011;2976;49.764;9.796;2023-12-28T15:16:01;0.30;;;0.30;;
5900;SDS011;2976;49.764;9.796;2023-12-28T15:18:28;0.40;;;0.40;;
5900;SDS011;2976;49.764;9.796;2023-12-28T15:20:55;0.50;;;0.50;;